createdAt,value
2018-03-29T00:00:37.992Z,79.06
2018-03-29T00:01:38.145Z,78.78
2018-03-29T00:02:38.296Z,78.88
2018-03-29T00:03:38.446Z,79.03
2018-03-29T00:04:38.594Z,78.88
2018-03-29T00:05:38.749Z,79.73
2018-03-29T00:06:38.900Z,78.97
2018-03-29T00:07:39.051Z,78.30
2018-03-29T00:08:39.200Z,78.40
2018-03-29T00:09:39.348Z,77.64
2018-03-29T00:10:39.500Z,78.11
2018-03-29T00:11:39.654Z,78.88
2018-03-29T00:12:39.811Z,78.11
2018-03-29T00:13:39.956Z,77.73
2018-03-29T00:14:40.103Z,78.21
2018-03-29T00:15:40.256Z,77.92
2018-03-29T00:16:40.405Z,78.59
2018-03-29T00:17:40.588Z,78.64
2018-03-29T00:18:40.705Z,78.83
2018-03-29T00:19:40.857Z,79.50
2018-03-29T00:20:41.009Z,79.69
2018-03-29T00:21:41.157Z,79.50
2018-03-29T00:22:41.307Z,79.79
2018-03-29T00:23:41.461Z,79.97
2018-03-29T00:24:41.613Z,79.69
2018-03-29T00:25:42.047Z,79.97
2018-03-29T00:26:41.920Z,80.07
2018-03-29T00:27:42.057Z,80.55
2018-03-29T00:28:42.208Z,79.79
2018-03-29T00:29:42.368Z,79.31
2018-03-29T00:30:42.521Z,78.55
2018-03-29T00:31:42.669Z,78.83
2018-03-29T00:32:42.816Z,79.69
2018-03-29T00:33:42.971Z,79.88
2018-03-29T00:34:43.412Z,79.16
2018-03-29T00:35:43.271Z,77.73
2018-03-29T00:36:43.419Z,77.92
2018-03-29T00:38:43.709Z,78.08
2018-03-29T00:39:43.859Z,78.64
2018-03-29T00:40:44.010Z,80.16
2018-03-29T00:41:44.160Z,79.60
2018-03-29T00:42:44.310Z,79.60
2018-03-29T00:43:44.458Z,78.93
2018-03-29T00:44:44.617Z,78.74
2018-03-29T00:45:44.758Z,78.93
2018-03-29T00:46:44.910Z,78.64
2018-03-29T00:47:45.059Z,78.55
2018-03-29T00:48:45.213Z,78.45
2018-03-29T00:49:45.360Z,78.83
2018-03-29T00:50:45.514Z,77.92
2018-03-29T00:51:45.694Z,77.73
2018-03-29T00:52:45.814Z,78.11
2018-03-29T00:53:45.960Z,77.55
2018-03-29T00:54:46.112Z,77.92
2018-03-29T00:55:46.265Z,77.55
2018-03-29T00:56:46.413Z,76.50
2018-03-29T00:57:46.565Z,77.26
2018-03-29T00:58:46.712Z,77.36
2018-03-29T00:59:46.864Z,76.93
2018-03-29T01:00:47.013Z,77.22
2018-03-29T01:01:47.162Z,77.60
2018-03-29T01:02:47.321Z,78.36
2018-03-29T01:03:47.466Z,77.70
2018-03-29T01:04:47.632Z,77.89
2018-03-29T01:05:47.765Z,77.98
2018-03-29T01:06:47.914Z,78.08
2018-03-29T01:07:48.066Z,77.92
2018-03-29T01:08:48.215Z,77.64
2018-03-29T01:09:48.376Z,77.07
2018-03-29T01:10:48.517Z,76.59
2018-03-29T01:11:48.669Z,76.12
2018-03-29T01:12:48.818Z,76.50
2018-03-29T01:13:48.973Z,76.69
2018-03-29T01:14:49.131Z,77.22
2018-03-29T01:15:49.270Z,77.79
2018-03-29T01:16:49.421Z,77.98
2018-03-29T01:17:49.825Z,78.27
2018-03-29T01:18:49.729Z,78.64
2018-03-29T01:19:49.877Z,79.03
2018-03-29T01:20:50.031Z,78.70
2018-03-29T01:21:50.179Z,78.89
2018-03-29T01:22:50.334Z,80.07
2018-03-29T01:23:50.484Z,79.31
2018-03-29T01:24:50.635Z,78.93
2018-03-29T01:25:50.788Z,79.03
2018-03-29T01:26:50.936Z,78.74
2018-03-29T01:27:51.087Z,79.12
2018-03-29T01:28:51.237Z,78.74
2018-03-29T01:29:51.388Z,78.83
2018-03-29T01:30:51.537Z,78.21
2018-03-29T01:31:51.690Z,77.26
2018-03-29T01:32:51.843Z,77.31
2018-03-29T01:33:51.994Z,77.51
2018-03-29T01:34:52.142Z,77.31
2018-03-29T01:35:52.296Z,77.79
2018-03-29T01:36:52.449Z,78.13
2018-03-29T01:37:52.593Z,78.89
2018-03-29T01:38:52.748Z,79.36
2018-03-29T01:39:52.894Z,79.03
2018-03-29T01:40:53.050Z,78.74
2018-03-29T01:41:53.194Z,79.08
2018-03-29T01:42:53.382Z,79.08
2018-03-29T01:43:53.498Z,79.46
2018-03-29T01:44:53.648Z,79.84
2018-03-29T01:45:53.805Z,80.22
2018-03-29T01:46:53.948Z,79.36
2018-03-29T01:47:54.112Z,79.55
2018-03-29T01:48:54.251Z,78.80
2018-03-29T01:49:54.400Z,78.99
2018-03-29T01:50:54.552Z,78.51
2018-03-29T01:51:54.702Z,79.94
2018-03-29T01:52:54.858Z,80.13
2018-03-29T01:53:55.009Z,80.13
2018-03-29T01:54:55.158Z,79.94
2018-03-29T01:55:55.308Z,80.03
2018-03-29T01:56:55.493Z,79.84
2018-03-29T01:57:55.849Z,79.71
2018-03-29T01:58:55.760Z,80.22
2018-03-29T01:59:55.907Z,80.13
2018-03-29T02:00:56.096Z,80.41
2018-03-29T02:01:56.206Z,79.94
2018-03-29T02:02:56.350Z,79.94
2018-03-29T02:03:56.498Z,79.84
2018-03-29T02:04:56.646Z,79.65
2018-03-29T02:05:56.801Z,79.17
2018-03-29T02:06:56.963Z,78.99
2018-03-29T02:07:57.089Z,79.08
2018-03-29T02:08:57.239Z,79.04
2018-03-29T02:10:57.539Z,79.80
2018-03-29T02:11:57.686Z,79.52
2018-03-29T02:12:57.837Z,79.52
2018-03-29T02:13:57.990Z,80.18
2018-03-29T02:14:58.130Z,80.56
2018-03-29T02:15:58.279Z,80.27
2018-03-29T02:16:58.428Z,80.56
2018-03-29T02:17:58.585Z,80.56
2018-03-29T02:18:58.728Z,80.08
2018-03-29T02:19:58.881Z,80.08
2018-03-29T02:20:59.033Z,80.56
2018-03-29T02:21:59.176Z,80.08
2018-03-29T02:22:59.326Z,80.27
2018-03-29T02:23:59.484Z,79.90
2018-03-29T02:24:59.629Z,80.08
2018-03-29T02:25:59.777Z,79.90
2018-03-29T02:26:59.926Z,81.13
2018-03-29T02:28:00.076Z,79.90
2018-03-29T02:29:00.225Z,80.18
2018-03-29T02:30:00.376Z,79.80
2018-03-29T02:31:00.527Z,79.99
2018-03-29T02:32:00.678Z,79.71
2018-03-29T02:33:00.832Z,80.08
2018-03-29T02:34:00.982Z,80.75
2018-03-29T02:35:01.128Z,80.18
2018-03-29T02:36:01.286Z,80.27
2018-03-29T02:37:01.445Z,79.90
2018-03-29T02:38:01.585Z,80.13
2018-03-29T02:39:01.726Z,80.13
2018-03-29T02:40:01.885Z,79.74
2018-03-29T02:41:02.035Z,79.46
2018-03-29T02:42:02.178Z,79.27
2018-03-29T02:43:02.329Z,78.89
2018-03-29T02:44:02.477Z,78.89
2018-03-29T02:45:02.625Z,79.08
2018-03-29T02:46:02.776Z,79.36
2018-03-29T02:47:03.177Z,79.27
2018-03-29T02:48:03.076Z,79.14
2018-03-29T02:49:03.224Z,78.75
2018-03-29T02:50:03.378Z,79.08
2018-03-29T02:51:03.529Z,78.95
2018-03-29T02:52:03.679Z,79.52
2018-03-29T02:53:03.840Z,79.42
2018-03-29T02:54:03.969Z,79.71
2018-03-29T02:55:04.124Z,79.99
2018-03-29T02:56:04.285Z,80.08
2018-03-29T02:57:04.426Z,80.08
2018-03-29T02:58:04.574Z,80.04
2018-03-29T02:59:04.732Z,80.33
2018-03-29T03:00:04.878Z,80.14
2018-03-29T03:01:05.025Z,81.09
2018-03-29T03:02:05.180Z,80.62
2018-03-29T03:03:05.323Z,81.09
2018-03-29T03:04:05.476Z,81.47
2018-03-29T03:05:05.628Z,80.99
2018-03-29T03:06:05.772Z,81.66
2018-03-29T03:07:05.925Z,81.75
2018-03-29T03:08:06.071Z,81.37
2018-03-29T03:09:06.235Z,81.47
2018-03-29T03:10:06.376Z,81.27
2018-03-29T03:11:06.530Z,81.94
2018-03-29T03:12:06.674Z,81.37
2018-03-29T03:13:06.824Z,80.90
2018-03-29T03:14:06.974Z,81.09
2018-03-29T03:15:07.130Z,81.27
2018-03-29T03:16:07.311Z,81.27
2018-03-29T03:17:07.426Z,81.62
2018-03-29T03:18:07.576Z,81.33
2018-03-29T03:19:07.731Z,81.81
2018-03-29T03:20:07.873Z,81.90
2018-03-29T03:21:08.021Z,82.09
2018-03-29T03:22:08.170Z,81.99
2018-03-29T03:23:08.324Z,82.28
2018-03-29T03:24:08.477Z,82.66
2018-03-29T03:25:08.622Z,82.56
2018-03-29T03:26:08.777Z,82.66
2018-03-29T03:27:08.921Z,83.04
2018-03-29T03:28:09.074Z,82.66
2018-03-29T03:29:09.215Z,82.94
2018-03-29T03:30:09.364Z,82.85
2018-03-29T03:31:09.516Z,82.66
2018-03-29T03:32:09.663Z,82.37
2018-03-29T03:33:09.812Z,82.66
2018-03-29T03:34:09.966Z,82.47
2018-03-29T03:35:10.110Z,82.47
2018-03-29T03:36:10.259Z,82.37
2018-03-29T03:37:10.407Z,82.66
2018-03-29T03:38:10.556Z,81.99
2018-03-29T03:39:10.706Z,82.47
2018-03-29T03:40:10.853Z,82.28
2018-03-29T03:41:11.003Z,82.28
2018-03-29T03:42:11.401Z,82.47
2018-03-29T03:43:11.301Z,82.37
2018-03-29T03:44:11.451Z,82.66
2018-03-29T03:45:11.603Z,82.37
2018-03-29T03:46:11.747Z,82.47
2018-03-29T03:47:11.901Z,82.60
2018-03-29T03:48:12.053Z,82.04
2018-03-29T03:49:12.199Z,81.94
2018-03-29T03:50:12.347Z,82.13
2018-03-29T03:51:12.500Z,81.98
2018-03-29T03:52:12.650Z,81.18
2018-03-29T03:53:12.804Z,80.94
2018-03-29T03:54:12.952Z,81.32
2018-03-29T03:55:13.109Z,80.46
2018-03-29T03:56:13.256Z,80.65
2018-03-29T03:57:13.398Z,80.75
2018-03-29T03:58:13.551Z,80.65
2018-03-29T03:59:13.698Z,80.71
2018-03-29T04:00:13.850Z,81.09
2018-03-29T04:01:14.003Z,81.27
2018-03-29T04:02:14.156Z,81.09
2018-03-29T04:03:14.304Z,80.99
2018-03-29T04:04:14.449Z,81.56
2018-03-29T04:05:14.599Z,81.27
2018-03-29T04:06:14.751Z,80.90
2018-03-29T04:07:14.891Z,81.85
2018-03-29T04:08:15.038Z,81.85
2018-03-29T04:09:15.192Z,81.56
2018-03-29T04:10:15.338Z,81.37
2018-03-29T04:11:15.501Z,82.04
2018-03-29T04:12:15.650Z,81.66
2018-03-29T04:13:15.795Z,81.94
2018-03-29T04:14:15.940Z,82.23
2018-03-29T04:15:16.097Z,82.04
2018-03-29T04:16:16.247Z,81.85
2018-03-29T04:17:16.394Z,81.94
2018-03-29T04:18:16.543Z,82.13
2018-03-29T04:19:16.692Z,82.13
2018-03-29T04:20:16.842Z,82.04
2018-03-29T04:21:16.995Z,82.13
2018-03-29T04:22:17.144Z,81.56
2018-03-29T04:23:17.298Z,81.27
2018-03-29T04:24:17.438Z,81.56
2018-03-29T04:25:17.599Z,81.85
2018-03-29T04:26:17.740Z,81.56
2018-03-29T04:27:17.896Z,81.47
2018-03-29T04:28:18.282Z,81.94
2018-03-29T04:29:18.189Z,81.27
2018-03-29T04:30:18.339Z,81.94
2018-03-29T04:31:18.491Z,81.56
2018-03-29T04:32:18.642Z,81.66
2018-03-29T04:33:18.791Z,81.94
2018-03-29T04:34:18.945Z,81.94
2018-03-29T04:35:19.108Z,82.32
2018-03-29T04:36:19.250Z,82.13
2018-03-29T04:37:19.399Z,81.94
2018-03-29T04:38:19.534Z,81.47
2018-03-29T04:39:19.684Z,81.18
2018-03-29T04:40:19.839Z,81.27
2018-03-29T04:41:19.988Z,81.37
2018-03-29T04:42:20.135Z,81.09
2018-03-29T04:43:20.283Z,81.47
2018-03-29T04:44:20.432Z,81.37
2018-03-29T04:45:20.582Z,82.13
2018-03-29T04:46:20.751Z,81.09
2018-03-29T04:47:20.889Z,80.90
2018-03-29T04:48:21.046Z,81.56
2018-03-29T04:49:21.187Z,81.27
2018-03-29T04:50:21.327Z,81.27
2018-03-29T04:51:21.497Z,80.90
2018-03-29T04:52:21.644Z,81.27
2018-03-29T04:53:21.802Z,81.37
2018-03-29T04:54:21.941Z,82.04
2018-03-29T04:55:22.100Z,81.47
2018-03-29T04:56:22.252Z,82.04
2018-03-29T04:57:22.395Z,81.47
2018-03-29T04:58:22.551Z,81.56
2018-03-29T04:59:22.698Z,81.47
2018-03-29T05:00:22.848Z,81.18
2018-03-29T05:01:23.031Z,81.94
2018-03-29T05:02:23.139Z,81.47
2018-03-29T05:03:23.290Z,80.99
2018-03-29T05:04:23.446Z,81.27
2018-03-29T05:05:23.591Z,81.27
2018-03-29T05:06:23.737Z,81.66
2018-03-29T05:07:23.885Z,81.75
2018-03-29T05:08:24.035Z,81.99
2018-03-29T05:09:24.183Z,81.66
2018-03-29T05:10:24.341Z,81.75
2018-03-29T05:11:24.478Z,81.94
2018-03-29T05:12:24.628Z,81.43
2018-03-29T05:13:24.780Z,81.85
2018-03-29T05:14:24.946Z,81.81
2018-03-29T05:15:25.079Z,81.85
2018-03-29T05:16:25.229Z,81.85
2018-03-29T05:17:25.622Z,81.85
2018-03-29T05:18:25.532Z,81.81
2018-03-29T05:19:25.683Z,81.66
2018-03-29T05:20:25.900Z,82.13
2018-03-29T05:21:25.983Z,81.47
2018-03-29T05:22:26.129Z,82.13
2018-03-29T05:23:26.279Z,81.56
2018-03-29T05:24:26.436Z,81.75
2018-03-29T05:25:26.634Z,82.32
2018-03-29T05:26:26.739Z,81.27
2018-03-29T05:27:26.892Z,81.56
2018-03-29T05:28:27.044Z,81.27
2018-03-29T05:29:27.208Z,81.47
2018-03-29T05:30:27.360Z,81.37
2018-03-29T05:31:27.509Z,81.56
2018-03-29T05:32:27.664Z,81.18
2018-03-29T05:33:27.809Z,81.56
2018-03-29T05:34:27.964Z,81.18
2018-03-29T05:35:28.112Z,81.18
2018-03-29T05:36:28.261Z,81.27
2018-03-29T05:37:28.410Z,81.09
2018-03-29T05:38:28.559Z,81.47
2018-03-29T05:39:28.706Z,81.56
2018-03-29T05:40:28.859Z,81.47
2018-03-29T05:41:29.009Z,81.85
2018-03-29T05:42:29.190Z,81.47
2018-03-29T05:43:29.312Z,81.85
2018-03-29T05:44:29.464Z,81.47
2018-03-29T05:45:29.610Z,81.47
2018-03-29T05:46:29.751Z,81.37
2018-03-29T05:47:29.902Z,81.75
2018-03-29T05:48:30.051Z,81.18
2018-03-29T05:49:30.200Z,81.27
2018-03-29T05:50:30.355Z,81.37
2018-03-29T05:51:30.502Z,80.90
2018-03-29T05:52:30.655Z,81.18
2018-03-29T05:53:30.803Z,80.90
2018-03-29T05:54:31.195Z,80.71
2018-03-29T05:55:31.117Z,81.47
2018-03-29T05:56:31.260Z,81.37
2018-03-29T05:57:31.413Z,81.47
2018-03-29T05:58:31.560Z,81.18
2018-03-29T05:59:31.709Z,81.27
2018-03-29T06:00:31.858Z,81.37
2018-03-29T06:01:32.013Z,81.56
2018-03-29T06:02:32.160Z,81.37
2018-03-29T06:03:32.308Z,81.27
2018-03-29T06:04:32.458Z,81.75
2018-03-29T06:05:32.606Z,81.75
2018-03-29T06:06:32.752Z,81.85
2018-03-29T06:07:32.907Z,81.37
2018-03-29T06:08:33.057Z,81.47
2018-03-29T06:09:33.206Z,81.56
2018-03-29T06:10:33.360Z,81.37
2018-03-29T06:11:33.509Z,81.18
2018-03-29T06:13:33.827Z,81.56
2018-03-29T06:14:33.977Z,81.56
2018-03-29T06:15:34.124Z,81.27
2018-03-29T06:16:34.272Z,81.56
2018-03-29T06:17:34.421Z,81.56
2018-03-29T06:18:34.570Z,81.27
2018-03-29T06:19:34.720Z,81.13
2018-03-29T06:20:34.868Z,81.32
2018-03-29T06:21:35.012Z,81.32
2018-03-29T06:22:35.168Z,81.51
2018-03-29T06:23:35.325Z,80.46
2018-03-29T06:24:35.480Z,80.94
2018-03-29T06:25:35.632Z,80.65
2018-03-29T06:26:35.773Z,80.56
2018-03-29T06:27:35.923Z,80.56
2018-03-29T06:28:36.074Z,81.07
2018-03-29T06:29:36.217Z,80.51
2018-03-29T06:30:36.367Z,79.04
2018-03-29T06:31:36.522Z,79.61
2018-03-29T06:32:36.666Z,79.71
2018-03-29T06:33:36.815Z,79.90
2018-03-29T06:34:36.974Z,79.61
2018-03-29T06:35:37.115Z,80.37
2018-03-29T06:36:37.267Z,81.51
2018-03-29T06:37:37.421Z,79.61
2018-03-29T06:38:37.624Z,79.04
2018-03-29T06:39:37.718Z,79.61
2018-03-29T06:40:37.875Z,79.71
2018-03-29T06:41:38.017Z,79.04
2018-03-29T06:42:38.167Z,81.13
2018-03-29T06:43:38.320Z,80.08
2018-03-29T06:44:38.479Z,79.80
2018-03-29T06:45:38.619Z,79.90
2018-03-29T06:46:38.765Z,79.99
2018-03-29T06:47:38.917Z,80.18
2018-03-29T06:48:39.069Z,80.08
2018-03-29T06:49:39.214Z,80.65
2018-03-29T06:50:39.367Z,81.13
2018-03-29T06:51:39.515Z,80.56
2018-03-29T06:52:39.926Z,80.27
2018-03-29T06:53:39.814Z,80.99
2018-03-29T06:54:39.962Z,81.32
2018-03-29T06:55:40.114Z,81.27
2018-03-29T06:56:40.265Z,80.94
2018-03-29T06:57:40.415Z,81.18
2018-03-29T06:58:40.566Z,79.42
2018-03-29T06:59:40.717Z,81.70
2018-03-29T07:00:40.870Z,80.65
2018-03-29T07:01:41.019Z,80.84
2018-03-29T07:02:41.168Z,80.08
2018-03-29T07:03:41.333Z,79.74
2018-03-29T07:04:41.475Z,82.50
2018-03-29T07:05:41.624Z,80.22
2018-03-29T07:06:41.774Z,78.64
2018-03-29T07:07:41.925Z,80.64
2018-03-29T07:08:42.087Z,78.17
2018-03-29T07:09:42.225Z,77.79
2018-03-29T07:10:42.375Z,77.51
2018-03-29T07:11:42.528Z,77.31
2018-03-29T07:12:42.673Z,77.41
2018-03-29T07:13:42.820Z,78.08
2018-03-29T07:14:42.977Z,78.08
2018-03-29T07:15:43.125Z,77.89
2018-03-29T07:16:43.277Z,77.98
2018-03-29T07:17:43.433Z,77.98
2018-03-29T07:18:43.580Z,77.51
2018-03-29T07:19:43.734Z,77.79
2018-03-29T07:20:43.882Z,77.51
2018-03-29T07:21:44.089Z,77.12
2018-03-29T07:22:44.187Z,77.41
2018-03-29T07:23:44.335Z,77.12
2018-03-29T07:24:44.488Z,77.70
2018-03-29T07:25:44.639Z,77.03
2018-03-29T07:26:44.785Z,76.65
2018-03-29T07:27:44.936Z,77.31
2018-03-29T07:28:45.091Z,76.40
2018-03-29T07:30:45.386Z,76.50
2018-03-29T07:31:45.534Z,76.21
2018-03-29T07:32:45.698Z,75.93
2018-03-29T07:33:45.843Z,75.45
2018-03-29T07:34:45.987Z,75.17
2018-03-29T07:35:46.140Z,75.40
2018-03-29T07:36:46.294Z,75.11
2018-03-29T07:37:46.444Z,75.11
2018-03-29T07:38:46.596Z,74.63
2018-03-29T07:39:46.741Z,74.26
2018-03-29T07:40:46.892Z,74.39
2018-03-29T07:41:47.085Z,74.26
2018-03-29T07:42:47.203Z,73.78
2018-03-29T07:43:47.360Z,73.69
2018-03-29T07:44:47.508Z,74.44
2018-03-29T07:45:47.664Z,74.35
2018-03-29T07:46:47.816Z,73.88
2018-03-29T07:47:47.966Z,74.10
2018-03-29T07:48:48.117Z,73.63
2018-03-29T07:49:48.266Z,73.49
2018-03-29T07:50:48.404Z,73.34
2018-03-29T07:51:48.574Z,73.25
2018-03-29T07:52:48.723Z,72.39
2018-03-29T07:53:48.878Z,72.30
2018-03-29T07:54:49.031Z,71.72
2018-03-29T07:55:49.182Z,71.19
2018-03-29T07:56:49.329Z,71.19
2018-03-29T07:57:49.484Z,71.00
2018-03-29T07:58:49.621Z,70.81
2018-03-29T07:59:49.781Z,69.76
2018-03-29T08:00:49.932Z,69.67
2018-03-29T08:01:50.091Z,69.67
2018-03-29T08:02:50.238Z,69.76
2018-03-29T08:03:50.388Z,69.70
2018-03-29T08:04:50.541Z,68.91
2018-03-29T08:05:50.693Z,66.56
2018-03-29T08:06:50.852Z,64.21
2018-03-29T08:07:51.005Z,62.52
2018-03-29T08:08:51.160Z,60.42
2018-03-29T08:10:51.462Z,58.00
2018-03-29T08:11:51.621Z,57.33
2018-03-29T08:13:51.958Z,55.45
2018-03-29T08:14:52.069Z,54.59
2018-03-29T08:15:52.225Z,54.47
2018-03-29T08:16:52.382Z,53.89
2018-03-29T08:17:52.531Z,54.34
2018-03-29T08:18:52.692Z,55.11
2018-03-29T08:19:52.839Z,57.46
2018-03-29T08:20:53.003Z,57.24
2018-03-29T08:21:53.146Z,57.06
2018-03-29T08:22:53.303Z,57.03
2018-03-29T08:23:53.461Z,57.31
2018-03-29T08:24:53.609Z,58.36
2018-03-29T08:25:53.765Z,58.75
2018-03-29T08:26:53.924Z,58.84
2018-03-29T08:27:54.078Z,58.17
2018-03-29T08:28:54.231Z,59.03
2018-03-29T08:29:54.389Z,59.03
2018-03-29T08:30:54.544Z,58.94
2018-03-29T08:31:54.697Z,58.84
2018-03-29T08:32:54.852Z,59.03
2018-03-29T08:33:55.005Z,58.43
2018-03-29T08:34:55.165Z,57.57
2018-03-29T08:35:55.311Z,56.62
2018-03-29T08:36:55.474Z,57.67
2018-03-29T08:37:55.648Z,57.28
2018-03-29T08:38:55.797Z,57.00
2018-03-29T08:39:55.951Z,57.54
2018-03-29T08:40:56.105Z,58.21
2018-03-29T08:41:56.274Z,57.73
2018-03-29T08:42:56.427Z,57.82
2018-03-29T08:43:56.574Z,57.54
2018-03-29T08:44:56.731Z,58.40
2018-03-29T08:45:56.886Z,58.21
2018-03-29T08:46:57.040Z,58.11
2018-03-29T08:47:57.195Z,58.78
2018-03-29T08:48:57.346Z,58.21
2018-03-29T08:49:57.503Z,57.82
2018-03-29T08:50:57.667Z,58.04
2018-03-29T08:51:57.818Z,57.76
2018-03-29T08:52:57.972Z,58.24
2018-03-29T08:53:58.128Z,58.14
2018-03-29T08:54:58.285Z,58.24
2018-03-29T08:55:58.434Z,57.38
2018-03-29T08:56:58.592Z,58.33
2018-03-29T08:57:58.741Z,57.76
2018-03-29T08:58:58.898Z,57.57
2018-03-29T08:59:59.052Z,57.86
2018-03-29T09:00:59.202Z,58.14
2018-03-29T09:01:59.362Z,57.95
2018-03-29T09:02:59.789Z,58.30
2018-03-29T09:03:59.664Z,57.92
2018-03-29T09:04:59.819Z,57.45
2018-03-29T09:05:59.973Z,58.87
2018-03-29T09:07:00.131Z,58.84
2018-03-29T09:08:00.282Z,58.69
2018-03-29T09:09:00.436Z,59.16
2018-03-29T09:10:00.593Z,59.70
2018-03-29T09:11:00.746Z,59.51
2018-03-29T09:12:00.906Z,59.70
2018-03-29T09:13:01.056Z,60.37
2018-03-29T09:14:01.212Z,60.46
2018-03-29T09:15:01.370Z,60.46
2018-03-29T09:16:01.519Z,60.44
2018-03-29T09:17:01.687Z,60.85
2018-03-29T09:18:01.834Z,60.72
2018-03-29T09:19:02.046Z,60.66
2018-03-29T09:20:02.144Z,60.56
2018-03-29T09:21:02.315Z,60.46
2018-03-29T09:22:02.446Z,60.85
2018-03-29T09:23:02.605Z,60.56
2018-03-29T09:24:02.746Z,60.46
2018-03-29T09:25:02.934Z,60.08
2018-03-29T09:26:03.051Z,60.85
2018-03-29T09:27:03.207Z,61.51
2018-03-29T09:28:03.602Z,61.13
2018-03-29T09:29:03.515Z,61.80
2018-03-29T09:30:03.665Z,61.32
2018-03-29T09:31:04.064Z,61.22
2018-03-29T09:32:03.970Z,61.42
2018-03-29T09:33:04.130Z,62.27
2018-03-29T09:34:04.279Z,61.61
2018-03-29T09:35:04.453Z,61.90
2018-03-29T09:36:04.606Z,61.90
2018-03-29T09:37:04.751Z,62.27
2018-03-29T09:38:04.909Z,62.08
2018-03-29T09:39:05.088Z,62.08
2018-03-29T09:40:05.207Z,62.27
2018-03-29T09:41:05.361Z,62.08
2018-03-29T09:42:05.512Z,61.99
2018-03-29T09:43:05.661Z,62.08
2018-03-29T09:44:05.817Z,61.90
2018-03-29T09:45:05.968Z,61.13
2018-03-29T09:46:06.131Z,60.94
2018-03-29T09:47:06.291Z,60.56
2018-03-29T09:48:06.422Z,60.30
2018-03-29T09:49:06.575Z,60.40
2018-03-29T09:50:06.746Z,59.83
2018-03-29T09:51:06.881Z,59.92
2018-03-29T09:52:07.040Z,60.56
2018-03-29T09:53:07.189Z,61.32
2018-03-29T09:54:07.346Z,61.80
2018-03-29T09:55:07.501Z,61.80
2018-03-29T09:56:07.650Z,61.22
2018-03-29T09:57:07.802Z,61.64
2018-03-29T09:58:07.954Z,60.59
2018-03-29T09:59:08.112Z,59.92
2018-03-29T10:00:08.260Z,59.83
2018-03-29T10:01:08.458Z,59.51
2018-03-29T10:02:08.611Z,59.99
2018-03-29T10:03:08.768Z,59.99
2018-03-29T10:04:08.917Z,60.46
2018-03-29T10:05:09.076Z,60.75
2018-03-29T10:06:09.223Z,60.46
2018-03-29T10:07:09.375Z,60.75
2018-03-29T10:08:09.533Z,60.56
2018-03-29T10:09:09.689Z,60.94
2018-03-29T10:10:09.837Z,60.94
2018-03-29T10:11:09.989Z,60.69
2018-03-29T10:12:10.142Z,59.83
2018-03-29T10:13:10.304Z,59.45
2018-03-29T10:14:10.461Z,59.09
2018-03-29T10:15:10.591Z,58.33
2018-03-29T10:16:10.742Z,58.33
2018-03-29T10:17:10.902Z,58.91
2018-03-29T10:18:11.048Z,58.78
2018-03-29T10:19:11.207Z,59.26
2018-03-29T10:20:11.365Z,59.83
2018-03-29T10:21:11.513Z,59.64
2018-03-29T10:22:11.664Z,59.64
2018-03-29T10:23:11.821Z,59.74
2018-03-29T10:24:11.980Z,59.64
2018-03-29T10:25:12.108Z,59.92
2018-03-29T10:26:12.265Z,59.74
2018-03-29T10:27:12.416Z,60.02
2018-03-29T10:28:12.570Z,59.54
2018-03-29T10:29:12.722Z,59.45
2018-03-29T10:30:12.939Z,59.26
2018-03-29T10:31:13.031Z,59.35
2018-03-29T10:32:13.180Z,59.74
2018-03-29T10:33:13.340Z,59.45
2018-03-29T10:34:13.488Z,59.16
2018-03-29T10:35:13.639Z,59.45
2018-03-29T10:36:14.031Z,58.65
2018-03-29T10:37:13.947Z,58.75
2018-03-29T10:38:14.095Z,58.87
2018-03-29T10:39:14.252Z,58.78
2018-03-29T10:40:14.402Z,58.87
2018-03-29T10:41:14.548Z,58.69
2018-03-29T10:42:14.707Z,58.40
2018-03-29T10:43:14.858Z,58.33
2018-03-29T10:44:15.015Z,57.76
2018-03-29T10:45:15.172Z,57.57
2018-03-29T10:46:15.326Z,57.57
2018-03-29T10:47:15.482Z,57.67
2018-03-29T10:48:15.636Z,57.92
2018-03-29T10:49:15.798Z,58.21
2018-03-29T10:50:15.939Z,58.40
2018-03-29T10:51:16.089Z,57.73
2018-03-29T10:52:16.257Z,58.69
2018-03-29T10:53:16.401Z,58.69
2018-03-29T10:54:16.556Z,58.87
2018-03-29T10:55:16.715Z,58.59
2018-03-29T10:56:16.863Z,59.06
2018-03-29T10:57:17.019Z,58.87
2018-03-29T10:58:17.170Z,59.06
2018-03-29T10:59:17.345Z,58.87
2018-03-29T11:00:17.496Z,58.87
2018-03-29T11:01:17.643Z,58.84
2018-03-29T11:02:17.794Z,58.65
2018-03-29T11:03:18.010Z,58.28
2018-03-29T11:04:18.105Z,58.56
2018-03-29T11:05:18.255Z,59.03
2018-03-29T11:06:18.409Z,59.32
2018-03-29T11:07:18.563Z,59.61
2018-03-29T11:08:18.716Z,60.27
2018-03-29T11:09:18.871Z,60.46
2018-03-29T11:10:19.080Z,61.51
2018-03-29T11:11:19.183Z,62.15
2018-03-29T11:12:19.332Z,62.15
2018-03-29T11:13:19.490Z,63.67
2018-03-29T11:14:19.640Z,62.72
2018-03-29T11:15:19.803Z,63.57
2018-03-29T11:16:19.947Z,63.01
2018-03-29T11:17:20.099Z,63.39
2018-03-29T11:18:20.255Z,63.48
2018-03-29T11:19:20.414Z,63.20
2018-03-29T11:20:20.562Z,63.76
2018-03-29T11:21:20.713Z,63.04
2018-03-29T11:22:20.863Z,63.80
2018-03-29T11:23:21.015Z,64.18
2018-03-29T11:24:21.165Z,64.18
2018-03-29T11:25:21.330Z,63.99
2018-03-29T11:26:21.494Z,64.72
2018-03-29T11:27:21.654Z,65.00
2018-03-29T11:28:21.801Z,65.03
2018-03-29T11:29:21.951Z,65.03
2018-03-29T11:30:22.113Z,65.51
2018-03-29T11:31:22.258Z,65.13
2018-03-29T11:32:22.408Z,66.27
2018-03-29T11:33:22.556Z,66.66
2018-03-29T11:34:22.717Z,65.70
2018-03-29T11:35:22.871Z,66.46
2018-03-29T11:36:23.020Z,65.55
2018-03-29T11:37:23.171Z,64.59
2018-03-29T11:38:23.331Z,65.07
2018-03-29T11:39:23.479Z,65.07
2018-03-29T11:40:23.631Z,65.55
2018-03-29T11:42:23.928Z,64.21
2018-03-29T11:43:24.083Z,63.76
2018-03-29T11:44:24.241Z,62.91
2018-03-29T11:45:24.393Z,63.39
2018-03-29T11:46:24.546Z,62.34
2018-03-29T11:47:24.700Z,63.00
2018-03-29T11:49:25.003Z,62.15
2018-03-29T11:50:25.156Z,61.51
2018-03-29T11:51:25.309Z,61.76
2018-03-29T11:52:25.463Z,60.81
2018-03-29T11:53:25.625Z,61.76
2018-03-29T11:54:25.766Z,61.93
2018-03-29T11:55:25.923Z,61.54
2018-03-29T11:56:26.078Z,62.88
2018-03-29T11:57:26.228Z,62.68
2018-03-29T11:58:26.391Z,62.72
2018-03-29T11:59:26.535Z,61.83
2018-03-29T12:00:26.688Z,61.93
2018-03-29T12:01:26.847Z,62.37
2018-03-29T12:02:27.018Z,63.60
2018-03-29T12:03:27.157Z,65.10
2018-03-29T12:04:27.309Z,65.67
2018-03-29T12:05:27.464Z,66.53
2018-03-29T12:06:27.878Z,66.43
2018-03-29T12:07:27.770Z,67.22
2018-03-29T12:08:27.930Z,66.43
2018-03-29T12:09:28.079Z,66.37
2018-03-29T12:10:28.227Z,66.62
2018-03-29T12:11:28.387Z,66.72
2018-03-29T12:12:28.533Z,66.66
2018-03-29T12:13:28.690Z,66.85
2018-03-29T12:14:28.842Z,66.53
2018-03-29T12:15:28.996Z,66.43
2018-03-29T12:16:29.149Z,66.43
2018-03-29T12:17:29.304Z,66.75
2018-03-29T12:18:29.467Z,66.37
2018-03-29T12:19:29.608Z,66.08
2018-03-29T12:20:29.764Z,65.51
2018-03-29T12:21:29.936Z,65.23
2018-03-29T12:22:30.074Z,65.32
2018-03-29T12:23:30.228Z,65.32
2018-03-29T12:24:30.388Z,65.13
2018-03-29T12:25:30.537Z,65.42
2018-03-29T12:26:30.703Z,64.28
2018-03-29T12:27:30.866Z,64.21
2018-03-29T12:28:31.006Z,66.72
2018-03-29T12:29:31.160Z,68.12
2018-03-29T12:30:31.318Z,62.18
2018-03-29T12:31:31.462Z,61.57
2018-03-29T12:32:31.863Z,53.44
2018-03-29T12:33:31.770Z,52.24
2018-03-29T12:34:31.960Z,53.08
2018-03-29T12:35:32.093Z,54.57
2018-03-29T12:36:32.245Z,56.07
2018-03-29T12:37:32.403Z,56.90
2018-03-29T12:38:32.552Z,57.67
2018-03-29T12:39:32.730Z,58.14
2018-03-29T12:40:32.869Z,57.98
2018-03-29T12:41:33.020Z,57.79
2018-03-29T12:42:33.185Z,57.60
2018-03-29T12:43:33.334Z,56.93
2018-03-29T12:44:33.488Z,55.79
2018-03-29T12:45:33.641Z,54.55
2018-03-29T12:46:33.790Z,53.97
2018-03-29T12:47:33.954Z,53.69
2018-03-29T12:48:34.100Z,53.85
2018-03-29T12:49:34.249Z,53.76
2018-03-29T12:50:34.398Z,53.85
2018-03-29T12:51:34.545Z,54.14
2018-03-29T12:52:34.702Z,54.80
2018-03-29T12:53:34.859Z,55.57
2018-03-29T12:54:35.009Z,55.38
2018-03-29T12:55:35.177Z,55.95
2018-03-29T12:56:35.302Z,56.90
2018-03-29T12:57:35.462Z,56.90
2018-03-29T12:58:35.615Z,55.76
2018-03-29T12:59:35.775Z,55.66
2018-03-29T13:00:35.933Z,55.31
2018-03-29T13:01:36.154Z,54.93
2018-03-29T13:02:36.244Z,54.26